createdAt,value
2017-07-16T00:02:13.836Z,11.80
2017-07-16T00:04:41.022Z,11.70
2017-07-16T00:07:07.506Z,11.70
2017-07-16T00:09:34.995Z,11.70
2017-07-16T00:12:01.515Z,11.60
2017-07-16T00:14:28.073Z,11.60
2017-07-16T00:16:54.515Z,11.50
2017-07-16T00:19:21.735Z,11.40
2017-07-16T00:21:48.237Z,11.40
2017-07-16T00:24:15.432Z,11.30
2017-07-16T00:26:41.892Z,11.30
2017-07-16T00:29:08.311Z,11.20
2017-07-16T00:31:34.760Z,11.20
2017-07-16T00:34:01.224Z,11.10
2017-07-16T00:36:27.662Z,11.10
2017-07-16T00:38:54.591Z,11.00
2017-07-16T00:41:21.034Z,11.00
2017-07-16T00:43:47.525Z,11.00
2017-07-16T00:46:14.000Z,11.00
2017-07-16T00:48:40.445Z,10.90
2017-07-16T00:51:06.897Z,10.80
2017-07-16T00:53:33.329Z,10.80
2017-07-16T00:55:59.770Z,10.80
2017-07-16T00:58:26.202Z,10.70
2017-07-16T01:00:53.396Z,10.60
2017-07-16T01:03:19.877Z,10.60
2017-07-16T01:05:46.411Z,10.60
2017-07-16T01:08:12.867Z,10.60
2017-07-16T01:10:39.321Z,10.60
2017-07-16T01:13:05.763Z,10.50
2017-07-16T01:15:33.055Z,10.40
2017-07-16T01:17:59.612Z,10.40
2017-07-16T01:20:26.070Z,10.40
2017-07-16T01:22:52.518Z,10.40
2017-07-16T01:25:19.724Z,10.40
2017-07-16T01:27:46.203Z,10.40
2017-07-16T01:30:12.678Z,10.30
2017-07-16T01:32:39.107Z,10.30
2017-07-16T01:35:05.577Z,10.30
2017-07-16T01:37:32.059Z,10.30
2017-07-16T01:40:00.201Z,10.30
2017-07-16T01:42:26.688Z,10.20
2017-07-16T01:44:53.187Z,10.20
2017-07-16T01:47:19.673Z,10.20
2017-07-16T01:49:46.137Z,10.20
2017-07-16T01:52:12.657Z,10.20
2017-07-16T01:54:39.216Z,10.20
2017-07-16T01:57:05.671Z,10.20
2017-07-16T01:59:32.230Z,10.10
2017-07-16T02:01:59.654Z,10.10
2017-07-16T02:04:26.096Z,10.10
2017-07-16T02:06:52.622Z,10.10
2017-07-16T02:09:19.180Z,10.00
2017-07-16T02:11:45.737Z,10.00
2017-07-16T02:14:12.193Z,10.00
2017-07-16T02:16:38.669Z,10.00
2017-07-16T02:19:05.099Z,10.00
2017-07-16T02:21:31.553Z,10.00
2017-07-16T02:23:58.743Z,9.90
2017-07-16T02:26:25.197Z,9.90
2017-07-16T02:31:24.815Z,9.90
2017-07-16T02:33:51.248Z,9.90
2017-07-16T02:36:18.141Z,9.80
2017-07-16T02:38:44.632Z,9.80
2017-07-16T02:41:11.060Z,9.80
2017-07-16T02:43:37.501Z,9.80
2017-07-16T02:46:04.419Z,9.70
2017-07-16T02:48:30.892Z,9.70
2017-07-16T02:50:57.426Z,9.70
2017-07-16T02:53:23.876Z,9.70
2017-07-16T02:55:50.317Z,9.60
2017-07-16T02:58:17.484Z,9.60
2017-07-16T03:00:44.707Z,9.60
2017-07-16T03:03:11.163Z,9.60
2017-07-16T03:05:37.691Z,9.60
2017-07-16T03:08:04.249Z,9.50
2017-07-16T03:10:30.729Z,9.50
2017-07-16T03:12:57.197Z,9.50
2017-07-16T03:15:23.671Z,9.50
2017-07-16T03:17:50.119Z,9.50
2017-07-16T03:20:17.047Z,9.50
2017-07-16T03:22:43.827Z,9.50
2017-07-16T03:25:36.340Z,9.50
2017-07-16T03:28:03.205Z,9.50
2017-07-16T03:30:29.643Z,9.50
2017-07-16T03:32:56.813Z,9.60
2017-07-16T03:35:24.009Z,9.60
2017-07-16T03:37:50.417Z,9.50
2017-07-16T03:40:17.657Z,9.60
2017-07-16T03:42:44.098Z,9.60
2017-07-16T03:45:10.648Z,9.60
2017-07-16T03:47:37.096Z,9.70
2017-07-16T03:50:04.286Z,9.70
2017-07-16T03:52:30.715Z,9.70
2017-07-16T03:54:57.919Z,9.80
2017-07-16T03:57:24.374Z,9.80
2017-07-16T03:59:50.921Z,9.80
2017-07-16T04:02:17.382Z,9.90
2017-07-16T04:04:43.918Z,9.90
2017-07-16T04:07:11.736Z,10.00
2017-07-16T04:09:38.177Z,10.00
2017-07-16T04:12:04.659Z,10.10
2017-07-16T04:14:31.609Z,10.30
2017-07-16T04:16:58.066Z,10.80
2017-07-16T04:19:24.521Z,11.80
2017-07-16T04:21:50.973Z,12.80
2017-07-16T04:24:17.418Z,13.80
2017-07-16T04:26:44.978Z,15.80
2017-07-16T04:29:12.167Z,16.70
2017-07-16T04:31:39.351Z,17.50
2017-07-16T04:34:06.129Z,17.50
2017-07-16T04:36:32.589Z,18.30
2017-07-16T04:38:59.126Z,19.10
2017-07-16T04:41:25.684Z,19.80
2017-07-16T04:43:52.246Z,20.40
2017-07-16T04:46:18.710Z,21.10
2017-07-16T04:48:45.139Z,21.70
2017-07-16T04:51:11.603Z,22.30
2017-07-16T04:53:38.782Z,23.40
2017-07-16T04:56:05.345Z,23.40
2017-07-16T04:58:31.808Z,23.90
2017-07-16T05:00:58.268Z,24.50
2017-07-16T05:03:25.149Z,25.00
2017-07-16T05:05:51.581Z,25.40
2017-07-16T05:08:18.052Z,25.80
2017-07-16T05:10:44.946Z,26.20
2017-07-16T05:13:11.659Z,26.50
2017-07-16T05:15:38.102Z,26.80
2017-07-16T05:18:04.559Z,27.00
2017-07-16T05:20:31.847Z,27.00
2017-07-16T05:22:58.902Z,27.00
2017-07-16T05:25:26.103Z,27.00
2017-07-16T05:27:52.529Z,27.00
2017-07-16T05:30:20.411Z,27.40
2017-07-16T05:32:48.016Z,27.70
2017-07-16T05:35:14.572Z,27.70
2017-07-16T05:37:41.059Z,28.10
2017-07-16T05:40:07.498Z,28.20
2017-07-16T05:42:33.959Z,28.40
2017-07-16T05:45:00.413Z,28.40
2017-07-16T05:47:26.955Z,28.60
2017-07-16T05:49:54.762Z,29.10
2017-07-16T05:52:21.781Z,29.10
2017-07-16T05:54:48.967Z,29.30
2017-07-16T05:57:15.542Z,29.20
2017-07-16T05:59:56.911Z,29.40
2017-07-16T06:02:24.203Z,30.30
2017-07-16T06:04:50.640Z,30.20
2017-07-16T06:07:18.243Z,31.30
2017-07-16T06:09:44.704Z,31.30
2017-07-16T06:12:11.237Z,31.80
2017-07-16T06:14:38.542Z,32.50
2017-07-16T06:17:05.087Z,32.50
2017-07-16T06:19:31.646Z,33.00
2017-07-16T06:21:58.408Z,33.40
2017-07-16T06:24:24.970Z,33.80
2017-07-16T06:26:51.394Z,34.00
2017-07-16T06:29:18.430Z,34.40
2017-07-16T06:31:45.495Z,34.80
2017-07-16T06:34:12.023Z,35.00
2017-07-16T06:36:39.090Z,35.50
2017-07-16T06:39:05.544Z,35.60
2017-07-16T06:41:31.964Z,35.80
2017-07-16T06:43:59.166Z,36.10
2017-07-16T06:46:25.635Z,36.20
2017-07-16T06:48:52.090Z,36.10
2017-07-16T06:51:18.497Z,36.70
2017-07-16T06:53:44.933Z,37.60
2017-07-16T06:56:11.365Z,38.00
2017-07-16T06:58:37.801Z,38.60
2017-07-16T07:01:04.971Z,39.30
2017-07-16T07:03:32.150Z,39.60
2017-07-16T07:05:58.549Z,39.50
2017-07-16T07:08:24.979Z,39.40
2017-07-16T07:10:51.605Z,39.60
2017-07-16T07:13:18.793Z,40.40
2017-07-16T07:15:45.289Z,40.40
2017-07-16T07:18:12.733Z,40.40
2017-07-16T07:20:39.803Z,40.30
2017-07-16T07:23:06.463Z,39.90
2017-07-16T07:25:33.023Z,39.50
2017-07-16T07:27:59.502Z,38.70
2017-07-16T07:30:25.978Z,38.20
2017-07-16T07:32:52.445Z,38.80
2017-07-16T07:35:18.966Z,39.80
2017-07-16T07:37:45.409Z,40.50
2017-07-16T07:40:11.960Z,41.10
2017-07-16T07:42:38.518Z,41.50
2017-07-16T07:45:05.591Z,41.50
2017-07-16T07:47:32.148Z,40.80
2017-07-16T07:49:58.685Z,39.40
2017-07-16T07:52:25.170Z,38.50
2017-07-16T07:54:51.693Z,37.90
2017-07-16T07:57:18.790Z,37.60
2017-07-16T07:59:45.654Z,37.00
2017-07-16T08:02:12.417Z,36.80
2017-07-16T08:04:40.100Z,36.90
2017-07-16T08:07:08.500Z,36.70
2017-07-16T08:09:35.570Z,36.60
2017-07-16T08:12:02.741Z,36.30
2017-07-16T08:14:30.945Z,36.10
2017-07-16T08:17:00.125Z,35.60
2017-07-16T08:19:28.016Z,34.60
2017-07-16T08:21:56.033Z,34.30
2017-07-16T08:24:24.225Z,34.30
2017-07-16T08:26:51.296Z,33.70
2017-07-16T08:29:18.574Z,32.80
2017-07-16T08:31:45.332Z,31.80
2017-07-16T08:34:12.606Z,31.00
2017-07-16T08:36:39.268Z,30.50
2017-07-16T08:39:07.345Z,30.20
2017-07-16T08:41:36.504Z,30.10
2017-07-16T08:44:04.568Z,30.10
2017-07-16T08:46:33.272Z,29.90
2017-07-16T08:49:00.650Z,29.80
2017-07-16T08:51:27.181Z,29.60
2017-07-16T08:53:54.482Z,28.60
2017-07-16T08:56:21.538Z,28.50
2017-07-16T08:58:49.479Z,27.80
2017-07-16T09:01:15.933Z,27.70
2017-07-16T09:03:43.888Z,27.60
2017-07-16T09:06:10.446Z,27.20
2017-07-16T09:08:37.001Z,27.00
2017-07-16T09:11:03.665Z,26.90
2017-07-16T09:13:30.187Z,26.80
2017-07-16T09:15:57.700Z,26.60
2017-07-16T09:18:24.361Z,26.40
2017-07-16T09:20:50.928Z,25.90
2017-07-16T09:23:17.682Z,25.50
2017-07-16T09:25:45.776Z,25.10
2017-07-16T09:28:13.151Z,24.70
2017-07-16T09:30:40.119Z,24.40
2017-07-16T09:33:06.608Z,24.30
2017-07-16T09:35:33.638Z,24.10
2017-07-16T09:38:00.918Z,23.80
2017-07-16T09:40:27.416Z,23.70
2017-07-16T09:42:53.883Z,23.70
2017-07-16T09:45:20.390Z,23.60
2017-07-16T09:47:46.947Z,23.50
2017-07-16T09:50:13.506Z,23.40
2017-07-16T09:52:40.045Z,23.50
2017-07-16T09:55:22.270Z,23.60
2017-07-16T09:57:48.730Z,23.60
2017-07-16T10:00:15.209Z,23.60
2017-07-16T10:02:41.679Z,23.60
2017-07-16T10:05:08.600Z,23.70
2017-07-16T10:07:35.810Z,23.70
2017-07-16T10:10:02.318Z,23.70
2017-07-16T10:12:29.575Z,23.80
2017-07-16T10:14:56.095Z,23.70
2017-07-16T10:17:22.625Z,23.80
2017-07-16T10:19:49.184Z,23.70
2017-07-16T10:22:15.658Z,23.70
2017-07-16T10:24:42.301Z,23.70
2017-07-16T10:27:08.741Z,23.80
2017-07-16T10:29:36.030Z,23.90
2017-07-16T10:32:02.694Z,23.90
2017-07-16T10:34:29.250Z,23.80
2017-07-16T10:36:55.810Z,23.60
2017-07-16T10:39:22.572Z,23.50
2017-07-16T10:41:49.057Z,23.70
2017-07-16T10:44:16.077Z,23.90
2017-07-16T10:46:43.303Z,24.20
2017-07-16T10:49:09.823Z,24.10
2017-07-16T10:51:36.387Z,24.30
2017-07-16T10:54:02.954Z,24.50
2017-07-16T10:56:29.606Z,24.50
2017-07-16T10:58:56.042Z,24.40
2017-07-16T11:01:22.518Z,24.50
2017-07-16T11:03:49.582Z,24.70
2017-07-16T11:06:16.066Z,24.80
2017-07-16T11:08:42.492Z,24.90
2017-07-16T11:11:09.693Z,24.80
2017-07-16T11:13:36.232Z,24.80
2017-07-16T11:16:02.766Z,24.80
2017-07-16T11:18:29.959Z,25.20
2017-07-16T11:20:57.341Z,25.40
2017-07-16T11:23:24.918Z,25.40
2017-07-16T11:25:51.411Z,25.50
2017-07-16T11:28:17.933Z,25.70
2017-07-16T11:30:44.491Z,25.70
2017-07-16T11:33:10.944Z,25.80
2017-07-16T11:35:37.449Z,25.80
2017-07-16T11:38:04.439Z,26.00
2017-07-16T11:40:30.909Z,26.10
2017-07-16T11:42:57.550Z,26.20
2017-07-16T11:45:24.456Z,26.20
2017-07-16T11:47:51.014Z,26.20
2017-07-16T11:50:17.498Z,26.10
2017-07-16T11:52:44.028Z,26.00
2017-07-16T11:55:10.538Z,25.90
2017-07-16T11:57:36.991Z,25.80
2017-07-16T12:00:03.461Z,25.80
2017-07-16T12:02:30.058Z,25.90
2017-07-16T12:04:56.556Z,26.10
2017-07-16T12:07:23.071Z,26.30
2017-07-16T12:09:49.531Z,26.50
2017-07-16T12:12:15.987Z,26.60
2017-07-16T12:14:42.857Z,26.40
2017-07-16T12:17:09.317Z,26.30
2017-07-16T12:19:35.785Z,26.20
2017-07-16T12:22:02.641Z,26.20
2017-07-16T12:24:29.098Z,26.20
2017-07-16T12:26:55.845Z,26.00
2017-07-16T12:29:22.316Z,25.90
2017-07-16T12:31:48.866Z,25.70
2017-07-16T12:34:15.361Z,25.60
2017-07-16T12:36:41.804Z,25.70
2017-07-16T12:39:08.347Z,25.70
2017-07-16T12:41:34.891Z,25.60
2017-07-16T12:44:01.340Z,25.70
2017-07-16T12:46:28.582Z,25.80
2017-07-16T12:48:55.062Z,25.70
2017-07-16T12:51:22.658Z,25.70
2017-07-16T12:53:49.081Z,25.70
2017-07-16T12:56:16.334Z,25.50
2017-07-16T12:58:42.844Z,25.50
2017-07-16T13:01:09.330Z,25.50
2017-07-16T13:03:35.858Z,25.60
2017-07-16T13:06:02.524Z,25.60
2017-07-16T13:08:29.079Z,25.40
2017-07-16T13:10:55.640Z,25.30
2017-07-16T13:13:22.195Z,25.20
2017-07-16T13:15:48.643Z,25.30
2017-07-16T13:18:15.880Z,25.60
2017-07-16T13:20:42.381Z,25.50
2017-07-16T13:23:09.045Z,25.60
2017-07-16T13:25:35.528Z,25.70
2017-07-16T13:28:01.992Z,25.80
2017-07-16T13:30:28.420Z,25.90
2017-07-16T13:32:54.861Z,26.00
2017-07-16T13:35:21.255Z,26.00
2017-07-16T13:37:47.694Z,25.90
2017-07-16T13:40:14.238Z,25.90
2017-07-16T13:42:40.765Z,25.90
2017-07-16T13:45:08.996Z,26.00
2017-07-16T13:47:35.502Z,26.20
2017-07-16T13:50:02.087Z,26.30
2017-07-16T13:52:29.303Z,26.20
2017-07-16T13:54:55.755Z,26.20
2017-07-16T13:57:22.537Z,26.10
2017-07-16T13:59:49.220Z,26.00
2017-07-16T14:02:15.818Z,25.90
2017-07-16T14:04:42.275Z,25.80
2017-07-16T14:07:08.832Z,25.70
2017-07-16T14:09:35.390Z,25.50
2017-07-16T14:12:01.949Z,25.40
2017-07-16T14:14:29.157Z,25.40
2017-07-16T14:16:55.679Z,25.40
2017-07-16T14:19:22.289Z,25.40
2017-07-16T14:21:48.798Z,25.50
2017-07-16T14:24:15.355Z,25.50
2017-07-16T14:26:41.841Z,25.70
2017-07-16T14:29:08.368Z,25.70
2017-07-16T14:31:34.783Z,25.70
2017-07-16T14:34:01.346Z,25.70
2017-07-16T14:36:27.795Z,25.60
2017-07-16T14:38:55.115Z,25.50
2017-07-16T14:41:21.600Z,25.40
2017-07-16T14:43:48.130Z,25.30
2017-07-16T14:46:15.303Z,25.30
2017-07-16T14:48:41.836Z,25.20
2017-07-16T14:51:09.028Z,25.00
2017-07-16T14:53:35.592Z,25.00
2017-07-16T14:56:02.360Z,24.90
2017-07-16T14:58:30.005Z,24.80
2017-07-16T15:00:56.509Z,24.70
2017-07-16T15:03:23.049Z,24.60
2017-07-16T15:05:49.553Z,24.60
2017-07-16T15:08:16.063Z,24.50
2017-07-16T15:10:42.602Z,24.50
2017-07-16T15:13:09.850Z,24.30
2017-07-16T15:15:36.277Z,24.30
2017-07-16T15:18:02.915Z,24.20
2017-07-16T15:20:29.399Z,24.10
2017-07-16T15:22:56.038Z,24.10
2017-07-16T15:25:22.811Z,24.00
2017-07-16T15:27:49.307Z,24.00
2017-07-16T15:30:15.786Z,24.00
2017-07-16T15:32:44.040Z,23.90
2017-07-16T15:35:10.496Z,23.90
2017-07-16T15:37:37.016Z,23.90
2017-07-16T15:40:03.574Z,23.80
2017-07-16T15:42:30.131Z,23.80
2017-07-16T15:44:56.694Z,23.70
2017-07-16T15:47:23.227Z,23.60
2017-07-16T15:49:50.523Z,23.40
2017-07-16T15:52:17.027Z,23.40
2017-07-16T15:54:43.625Z,23.40
2017-07-16T15:57:10.407Z,23.30
2017-07-16T15:59:36.960Z,23.20
2017-07-16T16:02:04.868Z,23.10
2017-07-16T16:04:31.519Z,23.10
2017-07-16T16:06:58.099Z,23.00
2017-07-16T16:09:24.630Z,23.00
2017-07-16T16:11:52.003Z,22.90
2017-07-16T16:14:18.767Z,22.90
2017-07-16T16:16:45.311Z,22.80
2017-07-16T16:19:12.603Z,22.70
2017-07-16T16:21:39.181Z,22.70
2017-07-16T16:24:05.803Z,22.70
2017-07-16T16:26:32.283Z,22.70
2017-07-16T16:28:58.851Z,22.60
2017-07-16T16:31:25.580Z,22.60
2017-07-16T16:33:53.131Z,22.60
2017-07-16T16:36:19.638Z,22.60
2017-07-16T16:38:46.196Z,22.60
2017-07-16T16:41:12.697Z,22.60
2017-07-16T16:43:39.153Z,22.50
2017-07-16T16:46:05.649Z,22.50
2017-07-16T16:48:33.756Z,22.40
2017-07-16T16:51:00.311Z,22.40
2017-07-16T16:53:26.869Z,22.50
2017-07-16T16:56:08.361Z,22.50
2017-07-16T16:58:34.837Z,22.50
2017-07-16T17:01:01.358Z,22.50
2017-07-16T17:03:28.600Z,22.30
2017-07-16T17:05:55.106Z,22.30
2017-07-16T17:08:21.666Z,22.20
2017-07-16T17:10:48.223Z,22.10
2017-07-16T17:13:14.659Z,21.90
2017-07-16T17:15:41.240Z,21.80
2017-07-16T17:18:07.699Z,21.70
2017-07-16T17:20:35.119Z,21.60
2017-07-16T17:23:01.690Z,21.60
2017-07-16T17:25:28.128Z,21.60
2017-07-16T17:27:55.570Z,21.50
2017-07-16T17:30:22.034Z,21.50
2017-07-16T17:32:48.981Z,21.40
2017-07-16T17:35:16.214Z,21.30
2017-07-16T17:37:42.821Z,21.30
2017-07-16T17:40:09.382Z,21.20
2017-07-16T17:42:35.879Z,21.20
2017-07-16T17:45:02.392Z,21.10
2017-07-16T17:47:29.749Z,21.10
2017-07-16T17:49:56.984Z,21.00
2017-07-16T17:52:24.010Z,20.90
2017-07-16T17:54:50.528Z,20.90
2017-07-16T17:57:17.024Z,20.80
2017-07-16T17:59:43.488Z,20.80
2017-07-16T18:02:10.044Z,20.80
2017-07-16T18:04:36.548Z,20.70
2017-07-16T18:07:03.156Z,20.60
2017-07-16T18:09:29.784Z,20.60
2017-07-16T18:11:56.377Z,20.50
2017-07-16T18:14:22.946Z,20.40
2017-07-16T18:16:49.493Z,20.40
2017-07-16T18:19:16.052Z,20.30
2017-07-16T18:21:42.514Z,20.30
2017-07-16T18:24:09.067Z,20.20
2017-07-16T18:26:35.619Z,20.20
2017-07-16T18:29:03.883Z,20.10
2017-07-16T18:31:30.901Z,20.10
2017-07-16T18:33:57.447Z,20.10
2017-07-16T18:36:23.908Z,20.00
2017-07-16T18:38:50.565Z,20.00
2017-07-16T18:41:17.125Z,20.00
2017-07-16T18:43:43.555Z,20.00
2017-07-16T18:46:10.748Z,19.90
2017-07-16T18:48:37.249Z,20.00
2017-07-16T18:51:03.749Z,19.90
2017-07-16T18:53:30.273Z,19.80
2017-07-16T18:55:56.759Z,19.80
2017-07-16T18:58:24.673Z,19.70
2017-07-16T19:00:52.118Z,19.70
2017-07-16T19:03:19.515Z,19.70
2017-07-16T19:05:46.702Z,19.60
2017-07-16T19:08:13.162Z,19.60
2017-07-16T19:10:40.017Z,19.60
2017-07-16T19:13:06.514Z,19.50
2017-07-16T19:15:33.136Z,19.50
2017-07-16T19:17:59.593Z,19.50
2017-07-16T19:20:26.098Z,19.50
2017-07-16T19:22:53.279Z,19.50
2017-07-16T19:25:19.778Z,19.50
2017-07-16T19:27:46.334Z,19.50
2017-07-16T19:30:12.776Z,19.40
2017-07-16T19:32:40.064Z,19.40
2017-07-16T19:35:06.623Z,19.40
2017-07-16T19:37:33.282Z,19.40
2017-07-16T19:39:59.845Z,19.30
2017-07-16T19:42:26.347Z,19.30
2017-07-16T19:44:52.917Z,19.30
2017-07-16T19:47:19.381Z,19.30
2017-07-16T19:49:46.486Z,19.30
2017-07-16T19:52:13.041Z,19.20
2017-07-16T19:54:39.806Z,19.20
2017-07-16T19:57:06.367Z,19.20
2017-07-16T19:59:32.922Z,19.20
2017-07-16T20:02:00.099Z,19.10
2017-07-16T20:04:26.535Z,19.10
2017-07-16T20:06:53.767Z,19.00
2017-07-16T20:09:20.252Z,19.00
2017-07-16T20:11:46.717Z,19.00
2017-07-16T20:14:14.017Z,19.00
2017-07-16T20:16:40.571Z,18.90
2017-07-16T20:19:07.751Z,18.90
2017-07-16T20:21:34.215Z,18.90
2017-07-16T20:24:00.711Z,18.90
2017-07-16T20:26:27.202Z,18.90
2017-07-16T20:28:53.772Z,18.80
2017-07-16T20:31:20.738Z,18.80
2017-07-16T20:33:47.508Z,18.70
2017-07-16T20:36:14.161Z,18.70
2017-07-16T20:38:40.577Z,18.70
2017-07-16T20:41:07.266Z,18.70
2017-07-16T20:43:33.841Z,18.70
2017-07-16T20:46:00.397Z,18.70
2017-07-16T20:48:27.364Z,18.60
2017-07-16T20:50:53.920Z,18.60
2017-07-16T20:53:20.991Z,18.60
2017-07-16T20:55:47.469Z,18.60
2017-07-16T20:58:14.517Z,18.60
2017-07-16T21:00:41.293Z,18.60
2017-07-16T21:03:07.837Z,18.50
2017-07-16T21:05:34.400Z,18.50
2017-07-16T21:08:00.956Z,18.50
2017-07-16T21:10:28.052Z,18.50
2017-07-16T21:12:54.496Z,18.50
2017-07-16T21:18:51.317Z,18.40
2017-07-16T21:21:17.873Z,18.30
2017-07-16T21:23:44.348Z,18.30
2017-07-16T21:26:11.113Z,18.30
2017-07-16T21:28:37.637Z,18.20
2017-07-16T21:31:04.870Z,18.20
2017-07-16T21:33:31.363Z,18.20
2017-07-16T21:35:58.625Z,18.10
2017-07-16T21:38:25.855Z,18.10
2017-07-16T21:40:52.315Z,18.10
2017-07-16T21:43:18.809Z,18.10
2017-07-16T21:45:46.019Z,18.10
2017-07-16T21:48:12.572Z,18.10
2017-07-16T21:50:39.040Z,18.10
2017-07-16T21:53:06.489Z,18.10
2017-07-16T21:55:33.941Z,18.10
2017-07-16T21:58:00.645Z,18.10
2017-07-16T22:00:27.119Z,18.10
2017-07-16T22:02:54.805Z,18.10
2017-07-16T22:05:21.899Z,18.10
2017-07-16T22:07:48.391Z,18.10
2017-07-16T22:10:15.023Z,18.10
2017-07-16T22:12:41.511Z,18.10
2017-07-16T22:15:08.806Z,18.00
2017-07-16T22:17:35.444Z,18.00
2017-07-16T22:20:02.673Z,18.00
2017-07-16T22:22:29.131Z,18.00
2017-07-16T22:24:55.561Z,18.00
2017-07-16T22:27:22.021Z,18.00
2017-07-16T22:29:48.486Z,17.90
2017-07-16T22:32:15.016Z,17.90
2017-07-16T22:34:41.478Z,17.90
2017-07-16T22:37:07.928Z,17.90
2017-07-16T22:39:35.123Z,17.90
2017-07-16T22:42:01.667Z,17.90
2017-07-16T22:44:28.100Z,18.00
2017-07-16T22:46:55.399Z,18.00
2017-07-16T22:49:21.836Z,18.00
2017-07-16T22:51:49.126Z,18.00
2017-07-16T22:54:15.615Z,17.90
2017-07-16T22:56:42.105Z,17.90
2017-07-16T22:59:08.597Z,17.90
2017-07-16T23:01:35.042Z,17.90
2017-07-16T23:04:02.260Z,17.90
2017-07-16T23:06:29.704Z,17.90
2017-07-16T23:08:56.797Z,17.90
2017-07-16T23:11:23.266Z,17.90
2017-07-16T23:13:49.756Z,17.90
2017-07-16T23:16:16.227Z,17.90
2017-07-16T23:18:43.523Z,17.90
2017-07-16T23:21:10.451Z,17.80
2017-07-16T23:23:36.906Z,17.80
2017-07-16T23:26:03.394Z,17.80
2017-07-16T23:28:29.837Z,17.80
2017-07-16T23:30:57.057Z,17.80
2017-07-16T23:33:23.537Z,17.70
2017-07-16T23:35:50.043Z,17.70
2017-07-16T23:38:16.495Z,17.70
2017-07-16T23:40:42.977Z,17.70
2017-07-16T23:43:09.478Z,17.70
2017-07-16T23:45:35.975Z,17.70
2017-07-16T23:48:02.430Z,17.70
2017-07-16T23:50:28.920Z,17.70
2017-07-16T23:52:55.355Z,17.70
2017-07-16T23:55:21.836Z,17.70
2017-07-16T23:57:48.287Z,17.70
